Time;durP1;ratioP1;P1;durP2;ratioP2;P2;SDS_P1;SDS_P2;PMS_P1;PMS_P2;Temp;Humidity;BMP_temperature;BMP_pressure;BME280_temperature;BME280_humidity;BME280_pressure;Samples;Min_cycle;Max_cycle;Signal;HPM_P1;HPM_P2
2021/08/05 00:00:16;;;;;;;5.32;4.80;;;14.90;99.90;;;;;;5092587;28;20044;-66
2021/08/05 00:02:44;;;;;;;5.20;4.78;;;14.90;99.90;;;;;;5104657;28;20105;-66
2021/08/05 00:05:11;;;;;;;8.35;4.38;;;14.80;99.90;;;;;;5117421;28;20089;-66
2021/08/05 00:07:38;;;;;;;5.28;4.20;;;14.70;99.90;;;;;;5104699;28;20130;-67
2021/08/05 00:10:05;;;;;;;5.00;4.50;;;14.70;99.90;;;;;;5106362;28;20078;-67
2021/08/05 00:12:32;;;;;;;5.25;4.78;;;14.70;99.90;;;;;;5116412;28;20043;-67
2021/08/05 00:14:58;;;;;;;7.00;3.90;;;14.70;99.90;;;;;;5116146;28;20067;-67
2021/08/05 00:17:25;;;;;;;4.97;4.28;;;14.60;99.90;;;;;;5115571;28;20036;-67
2021/08/05 00:19:53;;;;;;;4.93;4.43;;;14.60;99.90;;;;;;5115302;28;20081;-67
2021/08/05 00:22:20;;;;;;;6.43;5.65;;;14.50;99.90;;;;;;5115839;28;20083;-67
2021/08/05 00:24:46;;;;;;;4.80;4.40;;;14.60;99.90;;;;;;5117124;28;20082;-67
2021/08/05 00:27:13;;;;;;;5.10;4.50;;;14.60;99.90;;;;;;5117296;28;20503;-66
2021/08/05 00:29:39;;;;;;;5.68;4.78;;;14.60;99.90;;;;;;5116489;28;20403;-67
2021/08/05 00:32:06;;;;;;;4.88;4.07;;;14.60;99.90;;;;;;5116857;28;20550;-66
2021/08/05 00:34:33;;;;;;;5.07;4.57;;;14.60;99.90;;;;;;5117148;28;20082;-66
2021/08/05 00:37:01;;;;;;;5.28;4.78;;;14.50;99.90;;;;;;5103517;28;20055;-67
2021/08/05 00:39:27;;;;;;;4.90;4.40;;;14.50;99.90;;;;;;5113232;28;20064;-66
2021/08/05 00:41:54;;;;;;;7.30;4.85;;;14.40;99.90;;;;;;5101399;28;20076;-67
2021/08/05 00:44:20;;;;;;;5.00;4.32;;;14.40;99.90;;;;;;5117814;28;20052;-66
2021/08/05 00:46:47;;;;;;;4.45;4.05;;;14.40;99.90;;;;;;5116481;28;20075;-66
2021/08/05 00:49:14;;;;;;;4.55;4.15;;;14.40;99.90;;;;;;5116923;28;20040;-66
2021/08/05 00:51:40;;;;;;;4.80;3.92;;;14.50;99.90;;;;;;5116833;28;20074;-66
2021/08/05 00:54:11;;;;;;;4.43;4.03;;;14.40;99.90;;;;;;5116234;28;20113;-67
2021/08/05 00:56:38;;;;;;;5.68;3.95;;;14.40;99.90;;;;;;5106410;28;20048;-67
2021/08/05 00:59:05;;;;;;;5.82;4.13;;;14.40;99.90;;;;;;5111345;28;20063;-66
2021/08/05 01:01:36;;;;;;;5.97;4.20;;;14.50;99.90;;;;;;5114862;28;20044;-67
2021/08/05 01:04:03;;;;;;;;;;;14.60;99.90;;;;;;5115560;28;20568;-69
2021/08/05 01:06:41;;;;;;;4.25;3.75;;;14.60;99.90;;;;;;5115351;28;19947;-66
2021/08/05 01:09:16;;;;;;;4.35;3.55;;;14.70;99.90;;;;;;5111758;28;20057;-65
2021/08/05 01:11:46;;;;;;;4.13;3.72;;;14.60;99.90;;;;;;5114529;28;20067;-66
2021/08/05 01:14:17;;;;;;;4.43;3.90;;;14.70;99.90;;;;;;5112201;28;20071;-66
2021/08/05 01:16:47;;;;;;;6.05;3.95;;;14.60;99.90;;;;;;5114961;28;20400;-66
2021/08/05 01:19:22;;;;;;;4.65;3.47;;;14.60;99.90;;;;;;5096945;28;20074;-67
2021/08/05 01:21:56;;;;;;;6.00;4.30;;;14.60;99.90;;;;;;5096615;28;20083;-66
2021/08/05 01:24:25;;;;;;;4.63;3.35;;;14.60;99.90;;;;;;5114662;28;20075;-66
2021/08/05 01:27:00;;;;;;;5.88;4.45;;;14.60;99.90;;;;;;5111621;28;20044;-66
2021/08/05 01:29:27;;;;;;;3.38;3.03;;;14.60;99.90;;;;;;5093368;28;20048;-67
2021/08/05 01:31:55;;;;;;;4.10;3.67;;;14.50;99.90;;;;;;5100322;28;20515;-66
2021/08/05 01:34:23;;;;;;;3.38;3.05;;;14.50;99.90;;;;;;5104476;28;20546;-66
2021/08/05 01:36:51;;;;;;;3.75;3.45;;;14.60;99.90;;;;;;5096699;28;20075;-67
2021/08/05 01:39:18;;;;;;;6.05;3.60;;;14.60;99.90;;;;;;5095679;28;20441;-67
2021/08/05 01:41:46;;;;;;;3.90;3.08;;;14.60;99.90;;;;;;5111599;28;20492;-67
2021/08/05 01:44:15;;;;;;;7.32;3.35;;;14.60;99.90;;;;;;5096141;28;20524;-66
2021/08/05 01:46:43;;;;;;;4.03;3.42;;;14.50;99.90;;;;;;5095491;28;20511;-65
2021/08/05 01:49:11;;;;;;;3.72;3.42;;;14.40;99.90;;;;;;5104625;28;20071;-65
2021/08/05 01:51:39;;;;;;;3.67;3.38;;;14.30;99.90;;;;;;5114602;28;20081;-66
2021/08/05 01:54:06;;;;;;;3.60;3.28;;;14.30;99.90;;;;;;5113792;28;20071;-66
2021/08/05 01:56:33;;;;;;;3.50;3.20;;;14.30;99.90;;;;;;5102823;28;20094;-66
2021/08/05 01:58:59;;;;;;;3.28;2.97;;;14.30;99.90;;;;;;5092937;28;20079;-66
2021/08/05 02:01:28;;;;;;;4.03;2.78;;;14.30;99.90;;;;;;5098497;28;20481;-66
2021/08/05 02:04:05;;;;;;;4.85;2.67;;;14.30;99.90;;;;;;5093892;28;20050;-66
2021/08/05 02:06:36;;;;;;;3.20;2.90;;;14.30;99.90;;;;;;5101261;28;20461;-67
2021/08/05 02:09:11;;;;;;;5.05;2.78;;;14.40;99.90;;;;;;5105164;28;20040;-67
2021/08/05 02:11:43;;;;;;;5.20;3.50;;;14.50;99.90;;;;;;5102565;28;20040;-65
2021/08/05 02:14:14;;;;;;;5.07;2.65;;;14.50;99.90;;;;;;5116054;28;20071;-67
2021/08/05 02:16:45;;;;;;;3.38;3.10;;;14.40;99.90;;;;;;5115996;28;20096;-65
2021/08/05 02:19:13;;;;;;;3.80;2.97;;;14.40;99.90;;;;;;5113655;28;20677;-67
2021/08/05 02:21:42;;;;;;;3.05;2.78;;;14.50;99.90;;;;;;5113084;28;20047;-67
2021/08/05 02:24:08;;;;;;;3.20;2.95;;;14.50;99.90;;;;;;5094349;28;20086;-67
2021/08/05 02:26:36;;;;;;;6.93;2.70;;;14.50;99.90;;;;;;5093270;28;20071;-67
2021/08/05 02:29:03;;;;;;;3.20;2.50;;;14.40;99.90;;;;;;5092353;28;20072;-67
2021/08/05 02:31:29;;;;;;;4.22;2.78;;;14.30;99.90;;;;;;5093038;28;20075;-66
2021/08/05 02:33:59;;;;;;;4.97;3.25;;;14.30;99.90;;;;;;5092931;28;20521;-66
2021/08/05 02:36:25;;;;;;;4.88;3.05;;;14.20;99.90;;;;;;5112222;28;20044;-66
2021/08/05 02:38:52;;;;;;;2.97;2.78;;;14.20;99.90;;;;;;5096954;28;20071;-65
2021/08/05 02:41:19;;;;;;;2.70;2.50;;;14.10;99.90;;;;;;5104849;28;20527;-66
2021/08/05 02:43:46;;;;;;;3.65;3.13;;;14.20;99.90;;;;;;5101648;28;20503;-66
2021/08/05 02:46:15;;;;;;;3.40;2.90;;;14.20;99.90;;;;;;5114612;28;20059;-65
2021/08/05 02:48:41;;;;;;;6.20;2.80;;;14.20;99.90;;;;;;5112170;28;20044;-66
2021/08/05 02:51:10;;;;;;;3.38;3.08;;;14.20;99.90;;;;;;5102095;28;20072;-66
2021/08/05 02:53:37;;;;;;;3.03;2.72;;;14.10;99.90;;;;;;5112841;28;20074;-68
2021/08/05 02:56:04;;;;;;;3.35;3.05;;;14.10;99.90;;;;;;5112462;28;20078;-65
2021/08/05 02:58:31;;;;;;;2.92;2.63;;;14.10;99.90;;;;;;5112132;28;20177;-67
2021/08/05 03:00:58;;;;;;;6.43;2.90;;;14.00;99.90;;;;;;5113088;28;20519;-66
2021/08/05 03:03:25;;;;;;;3.55;2.85;;;14.00;99.90;;;;;;5103240;28;20082;-66
2021/08/05 03:05:52;;;;;;;2.88;2.53;;;14.00;99.90;;;;;;5102140;28;20102;-66
2021/08/05 03:08:21;;;;;;;3.10;2.80;;;14.00;99.90;;;;;;5103411;28;20464;-66
2021/08/05 03:10:48;;;;;;;4.80;3.05;;;14.00;99.90;;;;;;5112521;28;20488;-66
2021/08/05 03:13:14;;;;;;;3.70;3.47;;;14.10;99.90;;;;;;5110614;28;20070;-66
2021/08/05 03:15:41;;;;;;;3.80;3.03;;;14.00;99.90;;;;;;5113377;28;20471;-66
2021/08/05 03:18:08;;;;;;;4.55;2.85;;;14.00;99.90;;;;;;5105524;28;20068;-66
2021/08/05 03:20:35;;;;;;;4.40;2.88;;;14.00;99.90;;;;;;5107133;28;20488;-67
2021/08/05 03:23:01;;;;;;;3.20;2.53;;;14.00;99.90;;;;;;5116052;28;20048;-66
2021/08/05 03:25:29;;;;;;;2.85;2.58;;;14.00;99.90;;;;;;5113438;28;20085;-66
2021/08/05 03:27:56;;;;;;;4.47;3.08;;;14.00;99.90;;;;;;5114236;28;20497;-67
2021/08/05 03:30:22;;;;;;;3.05;2.75;;;14.00;99.90;;;;;;5113291;28;20503;-67
2021/08/05 03:32:49;;;;;;;3.42;2.97;;;14.00;99.90;;;;;;5097140;28;20088;-66
2021/08/05 03:35:15;;;;;;;4.57;2.70;;;14.00;99.90;;;;;;5093604;28;20078;-67
2021/08/05 03:37:42;;;;;;;3.35;2.95;;;14.10;99.90;;;;;;5093322;28;20105;-64
2021/08/05 03:40:09;;;;;;;3.05;2.75;;;14.10;99.90;;;;;;5105749;28;20117;-64
2021/08/05 03:42:37;;;;;;;2.80;2.47;;;14.20;99.90;;;;;;5100459;28;20097;-65
2021/08/05 03:45:04;;;;;;;2.83;2.63;;;14.10;99.90;;;;;;5112138;28;20067;-64
2021/08/05 03:47:30;;;;;;;4.78;2.53;;;14.10;99.90;;;;;;5109772;28;20082;-64
2021/08/05 03:49:57;;;;;;;3.75;3.28;;;14.10;99.90;;;;;;5111622;28;20043;-64
2021/08/05 03:52:24;;;;;;;4.35;3.75;;;14.00;99.90;;;;;;5107762;28;20098;-65
2021/08/05 03:54:50;;;;;;;3.22;2.92;;;14.10;99.90;;;;;;5096832;28;20044;-65
2021/08/05 03:57:17;;;;;;;3.85;2.63;;;14.20;99.90;;;;;;5091519;28;20881;-65
2021/08/05 03:59:45;;;;;;;6.82;3.53;;;14.20;99.90;;;;;;5100171;28;20570;-63
2021/08/05 04:02:11;;;;;;;5.47;2.65;;;14.20;99.90;;;;;;5092669;28;20087;-63
2021/08/05 04:04:38;;;;;;;3.35;2.65;;;14.30;99.90;;;;;;5093469;28;20048;-63
2021/08/05 04:07:05;;;;;;;3.67;3.15;;;14.30;99.90;;;;;;5112969;28;20383;-63
2021/08/05 04:09:32;;;;;;;4.45;2.90;;;14.40;99.90;;;;;;5098174;28;20072;-64
2021/08/05 04:11:58;;;;;;;3.13;2.83;;;14.30;99.90;;;;;;5092232;28;20072;-63
2021/08/05 04:14:25;;;;;;;3.70;2.85;;;14.40;99.90;;;;;;5095819;28;20070;-63
2021/08/05 04:16:53;;;;;;;3.20;2.90;;;14.40;99.90;;;;;;5112988;28;20109;-63
2021/08/05 04:19:19;;;;;;;4.72;2.47;;;14.50;99.90;;;;;;5093304;28;20040;-64
2021/08/05 04:21:50;;;;;;;3.13;2.83;;;14.50;99.90;;;;;;5103434;28;20076;-65
2021/08/05 04:24:16;;;;;;;2.70;2.50;;;14.50;99.90;;;;;;5091678;28;20101;-63
2021/08/05 04:26:43;;;;;;;3.40;2.63;;;14.50;99.90;;;;;;5092581;28;20080;-66
2021/08/05 04:29:09;;;;;;;2.90;2.65;;;14.60;99.90;;;;;;5091092;28;20074;-64
2021/08/05 04:31:36;;;;;;;4.53;2.97;;;14.60;99.90;;;;;;5105973;28;20044;-63
2021/08/05 04:34:04;;;;;;;6.82;4.07;;;14.70;99.90;;;;;;5099935;28;20079;-65
2021/08/05 04:36:30;;;;;;;3.25;2.72;;;14.70;99.90;;;;;;5102353;28;20092;-64
2021/08/05 04:38:57;;;;;;;3.08;2.83;;;14.70;99.90;;;;;;5111074;28;20063;-64
2021/08/05 04:41:23;;;;;;;8.23;2.88;;;14.80;99.90;;;;;;5111550;28;20071;-65
2021/08/05 04:43:51;;;;;;;3.55;2.60;;;14.70;99.90;;;;;;5110881;28;20071;-63
2021/08/05 04:46:18;;;;;;;4.53;2.67;;;14.80;99.90;;;;;;5103955;28;20411;-63
2021/08/05 04:48:44;;;;;;;2.50;2.30;;;14.90;99.90;;;;;;5102195;28;20044;-65
2021/08/05 04:51:12;;;;;;;2.60;2.40;;;15.00;99.90;;;;;;5103799;28;20067;-63
2021/08/05 04:53:39;;;;;;;4.63;3.08;;;15.10;99.90;;;;;;5109868;28;20097;-63
2021/08/05 04:56:05;;;;;;;3.63;3.03;;;15.20;99.90;;;;;;5115235;28;20455;-63
2021/08/05 04:58:32;;;;;;;3.22;3.00;;;15.30;99.90;;;;;;5101290;28;20092;-63
2021/08/05 05:00:59;;;;;;;3.70;2.67;;;15.40;99.90;;;;;;5096098;28;20460;-63
2021/08/05 05:03:25;;;;;;;2.90;2.50;;;15.50;99.90;;;;;;5097999;28;20458;-64
2021/08/05 05:05:52;;;;;;;4.90;2.90;;;15.50;99.90;;;;;;5095157;28;20082;-65
2021/08/05 05:08:22;;;;;;;3.38;3.08;;;15.50;99.90;;;;;;5095560;28;20040;-64
2021/08/05 05:10:50;;;;;;;4.45;2.78;;;15.60;99.90;;;;;;5113541;28;20100;-63
2021/08/05 05:13:17;;;;;;;3.60;2.90;;;15.70;99.90;;;;;;5100881;28;20097;-64
2021/08/05 05:15:44;;;;;;;4.88;3.45;;;15.70;99.90;;;;;;5108515;28;20039;-66
2021/08/05 05:18:12;;;;;;;3.70;3.35;;;15.80;99.90;;;;;;5110177;28;20063;-64
2021/08/05 05:20:39;;;;;;;5.35;3.28;;;15.90;99.90;;;;;;5102390;28;20068;-64
2021/08/05 05:23:07;;;;;;;3.72;3.42;;;16.00;99.90;;;;;;5113603;28;20141;-65
2021/08/05 05:25:36;;;;;;;3.58;3.05;;;16.10;99.90;;;;;;5114865;28;20071;-65
2021/08/05 05:28:03;;;;;;;3.33;3.03;;;16.30;99.90;;;;;;5114279;28;20484;-65
2021/08/05 05:30:30;;;;;;;3.95;3.20;;;16.30;99.90;;;;;;5114038;28;20511;-65
2021/08/05 05:32:57;;;;;;;4.65;3.53;;;16.40;99.90;;;;;;5107958;28;20117;-65
2021/08/05 05:35:24;;;;;;;4.45;3.45;;;16.60;99.90;;;;;;5095013;28;20407;-64
2021/08/05 05:37:53;;;;;;;4.13;3.78;;;16.80;99.90;;;;;;5109179;28;20071;-64
2021/08/05 05:40:20;;;;;;;4.07;3.67;;;17.10;99.90;;;;;;5113750;28;20039;-64
2021/08/05 05:42:49;;;;;;;5.43;4.38;;;17.30;99.90;;;;;;5112581;28;20104;-64
2021/08/05 05:45:17;;;;;;;7.72;5.22;;;17.40;99.90;;;;;;5115062;28;20039;-61
2021/08/05 05:47:44;;;;;;;11.15;6.75;;;17.50;99.90;;;;;;5101575;28;20487;-62
2021/08/05 05:50:12;;;;;;;7.40;5.15;;;17.50;99.90;;;;;;5093398;28;20075;-64
2021/08/05 05:52:40;;;;;;;7.63;6.30;;;17.60;99.90;;;;;;5094884;28;20484;-67
2021/08/05 05:55:08;;;;;;;9.75;6.68;;;17.60;99.90;;;;;;5100217;28;20047;-67
2021/08/05 05:57:35;;;;;;;6.32;5.65;;;17.60;99.90;;;;;;5111852;28;20093;-66
2021/08/05 06:00:04;;;;;;;6.28;5.57;;;17.80;99.90;;;;;;5094040;28;20047;-65
2021/08/05 06:02:31;;;;;;;9.27;6.60;;;17.90;99.90;;;;;;5095096;28;20055;-64
2021/08/05 06:04:57;;;;;;;7.47;5.85;;;18.10;99.90;;;;;;5095046;28;20113;-64
2021/08/05 06:07:24;;;;;;;5.90;5.00;;;18.20;99.90;;;;;;5094656;28;20044;-63
2021/08/05 06:09:51;;;;;;;6.85;5.22;;;18.30;99.90;;;;;;5098352;28;20040;-64
2021/08/05 06:12:17;;;;;;;10.38;6.05;;;18.40;99.90;;;;;;5093470;28;20407;-63
2021/08/05 06:14:44;;;;;;;8.95;5.70;;;18.40;99.90;;;;;;5101515;28;20488;-63
2021/08/05 06:17:12;;;;;;;7.88;6.15;;;18.50;99.90;;;;;;5114231;28;20044;-63
2021/08/05 06:19:38;;;;;;;11.35;7.60;;;18.60;99.90;;;;;;5096032;28;20136;-64
2021/08/05 06:22:05;;;;;;;10.70;7.22;;;18.60;99.90;;;;;;5113376;28;20075;-63
2021/08/05 06:24:31;;;;;;;12.05;8.50;;;18.60;99.90;;;;;;5100510;28;20071;-63
2021/08/05 06:26:58;;;;;;;9.23;7.18;;;18.80;99.90;;;;;;5114056;28;20075;-63
2021/08/05 06:29:29;;;;;;;10.55;6.60;;;18.80;99.90;;;;;;5094278;28;20068;-64
2021/08/05 06:31:56;;;;;;;9.50;6.00;;;18.90;99.90;;;;;;5112543;28;20122;-63
2021/08/05 06:34:24;;;;;;;8.07;6.20;;;18.90;99.90;;;;;;5095781;28;20090;-66
2021/08/05 06:36:51;;;;;;;6.70;5.97;;;19.00;99.90;;;;;;5094734;28;20084;-66
2021/08/05 06:39:18;;;;;;;8.10;6.65;;;18.90;99.90;;;;;;5092508;28;20064;-66
2021/08/05 06:41:45;;;;;;;7.10;5.38;;;19.00;99.90;;;;;;5100028;28;20065;-65
2021/08/05 06:44:12;;;;;;;9.05;6.75;;;18.90;99.90;;;;;;5093845;28;20072;-65
2021/08/05 06:46:38;;;;;;;19.25;13.50;;;19.10;99.90;;;;;;5110474;28;20070;-65
2021/08/05 06:49:05;;;;;;;7.53;6.25;;;19.40;99.90;;;;;;5100293;28;20075;-64
2021/08/05 06:51:33;;;;;;;14.48;9.55;;;19.50;99.90;;;;;;5092979;28;20068;-66
2021/08/05 06:53:59;;;;;;;9.00;6.65;;;19.80;99.90;;;;;;5111324;28;20088;-64
2021/08/05 06:56:26;;;;;;;10.05;7.93;;;19.90;99.90;;;;;;5098109;28;20086;-66
2021/08/05 06:58:52;;;;;;;7.05;5.38;;;20.20;99.90;;;;;;5106564;28;20096;-67
2021/08/05 07:01:19;;;;;;;7.85;6.30;;;20.30;99.90;;;;;;5112669;28;20115;-64
2021/08/05 07:03:45;;;;;;;9.32;6.63;;;20.40;99.90;;;;;;5112942;28;20083;-63
2021/08/05 07:06:12;;;;;;;7.97;7.18;;;20.60;99.90;;;;;;5112818;28;20043;-65
2021/08/05 07:08:40;;;;;;;7.95;5.93;;;20.90;99.90;;;;;;5111747;28;20039;-64
2021/08/05 07:11:06;;;;;;;9.93;6.10;;;21.00;99.90;;;;;;5109598;28;20082;-63
2021/08/05 07:13:33;;;;;;;6.82;6.07;;;21.00;99.90;;;;;;5110525;28;20040;-63
2021/08/05 07:15:59;;;;;;;9.63;6.78;;;21.20;99.90;;;;;;5096486;28;20136;-64
2021/08/05 07:18:26;;;;;;;8.45;6.35;;;21.50;99.90;;;;;;5108317;28;20052;-64
2021/08/05 07:20:55;;;;;;;10.18;6.93;;;21.40;99.90;;;;;;5103800;28;20044;-66
2021/08/05 07:23:22;;;;;;;7.20;5.95;;;21.40;99.90;;;;;;5105776;28;20044;-64
2021/08/05 07:25:50;;;;;;;13.60;8.32;;;21.10;99.90;;;;;;5013002;28;20063;-64
2021/08/05 07:28:17;;;;;;;8.05;6.05;;;21.30;99.90;;;;;;5051917;28;20076;-75
2021/08/05 07:30:45;;;;;;;6.95;5.63;;;21.40;99.90;;;;;;5048229;28;20133;-75
2021/08/05 07:33:15;;;;;;;9.73;6.80;;;21.70;99.90;;;;;;5053034;28;20049;-70
2021/08/05 07:35:42;;;;;;;8.93;8.00;;;21.50;99.90;;;;;;5052502;28;20045;-71
2021/08/05 07:38:11;;;;;;;10.45;5.82;;;21.60;99.90;;;;;;5048762;28;20137;-75
2021/08/05 07:40:38;;;;;;;6.82;4.90;;;22.10;99.90;;;;;;5032824;28;20510;-77
2021/08/05 07:43:07;;;;;;;6.70;4.95;;;22.50;99.90;;;;;;5033360;28;20049;-79
2021/08/05 07:45:35;;;;;;;6.47;5.07;;;22.80;99.90;;;;;;5033739;28;20053;-73
2021/08/05 07:48:02;;;;;;;5.53;5.03;;;22.90;99.90;;;;;;5033356;28;20041;-72
2021/08/05 07:50:32;;;;;;;7.15;4.95;;;23.10;99.90;;;;;;5032984;28;20041;-75
2021/08/05 07:53:00;;;;;;;5.82;4.55;;;23.30;99.90;;;;;;5046056;28;20060;-75
2021/08/05 07:55:27;;;;;;;5.15;4.57;;;23.30;99.90;;;;;;5054981;28;20055;-75
2021/08/05 07:57:54;;;;;;;6.68;4.20;;;23.50;99.90;;;;;;5050866;28;20140;-72
2021/08/05 08:00:22;;;;;;;6.25;5.70;;;23.90;99.90;;;;;;5051168;28;20052;-74
2021/08/05 08:02:49;;;;;;;7.50;4.60;;;24.00;99.90;;;;;;5050957;28;20044;-72
2021/08/05 08:05:23;;;;;;;4.43;4.03;;;24.20;99.90;;;;;;5051748;28;20041;-82
2021/08/05 08:07:56;;;;;;;5.38;4.88;;;24.50;99.90;;;;;;5037723;28;20449;-78
2021/08/05 08:10:23;;;;;;;6.88;4.40;;;25.10;99.90;;;;;;5031977;28;20490;-71
2021/08/05 08:12:50;;;;;;;6.30;4.55;;;25.80;99.70;;;;;;5032766;28;20073;-68
2021/08/05 08:15:17;;;;;;;6.35;4.53;;;26.20;97.60;;;;;;5036075;28;20459;-68
2021/08/05 08:17:45;;;;;;;6.57;4.65;;;26.40;94.90;;;;;;5050066;28;20543;-68
2021/08/05 08:20:12;;;;;;;5.45;4.57;;;25.70;94.70;;;;;;5048958;28;20440;-69
2021/08/05 08:22:38;;;;;;;5.20;4.13;;;25.00;97.20;;;;;;5053155;28;20052;-70
2021/08/05 08:25:06;;;;;;;7.00;4.68;;;25.20;96.60;;;;;;5054769;28;20045;-69
2021/08/05 08:27:33;;;;;;;6.15;4.40;;;25.20;96.20;;;;;;5051818;28;20091;-68
2021/08/05 08:29:59;;;;;;;4.55;4.15;;;24.60;96.20;;;;;;5035168;28;20112;-75
2021/08/05 08:32:26;;;;;;;5.05;4.05;;;25.00;97.50;;;;;;5035398;28;20057;-68
2021/08/05 08:34:54;;;;;;;6.88;4.40;;;25.50;97.20;;;;;;5035166;28;20049;-69
2021/08/05 08:37:20;;;;;;;4.60;4.20;;;26.10;95.50;;;;;;5035258;28;20081;-69
2021/08/05 08:39:47;;;;;;;7.22;4.78;;;26.40;94.60;;;;;;5044884;28;20037;-68
2021/08/05 08:42:16;;;;;;;4.30;3.95;;;26.80;92.50;;;;;;5039379;28;20497;-78
2021/08/05 08:44:43;;;;;;;3.97;3.60;;;26.50;92.90;;;;;;5038075;28;20037;-70
2021/08/05 08:47:10;;;;;;;3.72;3.42;;;27.50;92.00;;;;;;5055299;28;20100;-73
2021/08/05 08:49:37;;;;;;;8.13;4.30;;;28.20;90.20;;;;;;5051234;28;20079;-72
2021/08/05 08:52:06;;;;;;;4.40;3.28;;;28.60;86.20;;;;;;5040185;28;20084;-73
2021/08/05 08:54:34;;;;;;;3.97;3.33;;;28.80;84.50;;;;;;5054293;28;20041;-72
2021/08/05 08:57:02;;;;;;;5.35;3.60;;;28.40;84.30;;;;;;5035049;28;20051;-71
2021/08/05 08:59:28;;;;;;;16.45;4.10;;;28.10;83.90;;;;;;5051608;28;20041;-72
2021/08/05 09:01:55;;;;;;;4.40;4.00;;;27.90;84.60;;;;;;5054454;28;20052;-74
2021/08/05 09:04:22;;;;;;;5.28;3.60;;;27.80;84.70;;;;;;5053821;28;20048;-74
2021/08/05 09:06:49;;;;;;;3.35;3.08;;;27.70;86.50;;;;;;5052467;28;20045;-71
2021/08/05 09:09:17;;;;;;;5.47;5.07;;;27.60;85.80;;;;;;5053371;28;20045;-71
2021/08/05 09:11:43;;;;;;;5.53;4.75;;;28.00;84.20;;;;;;5053335;28;20072;-75
2021/08/05 09:14:12;;;;;;;4.57;4.05;;;27.60;81.60;;;;;;5050239;28;20563;-73
2021/08/05 09:16:39;;;;;;;4.75;4.10;;;27.10;83.40;;;;;;5054374;28;20148;-73
2021/08/05 09:19:10;;;;;;;7.57;4.55;;;27.10;85.70;;;;;;5034538;28;20053;-74
2021/08/05 09:21:50;;;;;;;5.30;4.38;;;26.80;83.20;;;;;;5043415;28;20041;-74
2021/08/05 09:24:18;;;;;;;3.80;3.15;;;26.50;85.40;;;;;;5053179;28;20091;-71
2021/08/05 09:26:47;;;;;;;4.43;3.60;;;26.70;85.60;;;;;;5053740;28;20733;-73
2021/08/05 09:29:18;;;;;;;4.43;4.03;;;27.10;85.00;;;;;;5053500;28;20037;-77
2021/08/05 09:31:45;;;;;;;;;;;27.10;82.50;;;;;;5054906;28;20053;-73
2021/08/05 09:34:14;;;;;;;6.40;4.57;;;27.20;82.70;;;;;;5053488;28;19921;-71
2021/08/05 09:36:41;;;;;;;3.97;3.67;;;27.80;83.80;;;;;;5053087;28;20057;-73
2021/08/05 09:39:19;;;;;;;8.40;4.65;;;28.80;80.70;;;;;;5053394;28;20386;-74
2021/08/05 09:41:54;;;;;;;4.00;3.60;;;29.00;74.10;;;;;;5052198;28;20052;-72
2021/08/05 09:44:21;;;;;;;4.65;4.25;;;28.70;75.50;;;;;;5037259;28;20502;-73
2021/08/05 09:47:00;;;;;;;4.15;3.75;;;29.00;75.10;;;;;;5043600;28;20041;-70
2021/08/05 09:49:29;;;;;;;3.80;3.33;;;28.80;72.80;;;;;;5052622;28;20057;-73
2021/08/05 09:51:55;;;;;;;4.32;3.97;;;27.80;74.20;;;;;;5052415;28;20044;-72
2021/08/05 09:54:24;;;;;;;4.13;3.40;;;28.20;73.40;;;;;;5053773;28;20096;-73
2021/08/05 09:56:55;;;;;;;3.88;3.47;;;28.30;75.20;;;;;;5039031;28;20498;-75
2021/08/05 09:59:22;;;;;;;3.83;3.55;;;28.60;73.10;;;;;;5035938;28;20049;-70
2021/08/05 10:02:06;;;;;;;3.60;3.10;;;28.40;73.10;;;;;;5052868;28;20452;-70
2021/08/05 10:04:34;;;;;;;5.05;3.83;;;28.60;74.00;;;;;;5053181;28;20052;-69
2021/08/05 10:07:05;;;;;;;4.05;3.35;;;29.00;72.10;;;;;;5042841;28;20077;-70
2021/08/05 10:09:34;;;;;;;3.53;3.22;;;28.80;71.20;;;;;;5037494;28;20045;-70
2021/08/05 10:12:19;;;;;;;3.53;3.05;;;28.40;73.00;;;;;;5039165;28;20049;-70
2021/08/05 10:14:48;;;;;;;4.10;3.70;;;28.60;72.50;;;;;;5050706;28;20061;-70
2021/08/05 10:17:17;;;;;;;4.72;4.32;;;28.80;72.30;;;;;;5053264;28;20512;-69
2021/08/05 10:19:45;;;;;;;3.85;3.55;;;29.00;70.30;;;;;;5045265;28;20641;-69
2021/08/05 10:22:14;;;;;;;4.00;3.38;;;28.90;69.20;;;;;;5049156;28;20053;-70
2021/08/05 10:24:44;;;;;;;3.30;3.10;;;28.70;70.40;;;;;;5053163;28;20080;-70
2021/08/05 10:27:12;;;;;;;3.95;3.65;;;28.10;73.10;;;;;;5053021;28;20045;-70
2021/08/05 10:29:41;;;;;;;4.18;3.88;;;27.90;72.80;;;;;;5047906;28;20475;-71
2021/08/05 10:32:10;;;;;;;4.63;4.25;;;28.10;71.20;;;;;;5052786;28;20486;-69
2021/08/05 10:34:38;;;;;;;5.70;5.00;;;27.90;71.50;;;;;;5035289;28;20042;-71
2021/08/05 10:37:07;;;;;;;6.75;5.63;;;27.70;72.70;;;;;;5052684;28;20049;-70
2021/08/05 10:39:35;;;;;;;4.65;4.28;;;28.30;72.30;;;;;;5051095;28;20455;-71
2021/08/05 10:42:07;;;;;;;6.78;5.22;;;29.00;70.20;;;;;;5053243;28;20083;-70
2021/08/05 10:44:35;;;;;;;3.75;3.45;;;29.30;68.60;;;;;;5053337;28;20056;-70
2021/08/05 10:47:04;;;;;;;3.83;3.50;;;29.10;67.50;;;;;;5050726;28;20116;-71
2021/08/05 10:49:31;;;;;;;6.75;6.05;;;28.70;68.10;;;;;;5039317;28;20505;-71
2021/08/05 10:51:57;;;;;;;5.15;4.63;;;28.40;69.40;;;;;;5033059;28;20073;-71
2021/08/05 10:54:51;;;;;;;4.80;4.22;;;28.20;69.70;;;;;;5051014;28;20037;-71
2021/08/05 10:57:21;;;;;;;3.53;3.08;;;28.00;69.30;;;;;;5045975;28;20083;-71
2021/08/05 10:59:58;;;;;;;4.10;3.70;;;28.00;69.90;;;;;;5050771;28;20079;-65
2021/08/05 11:02:47;;;;;;;4.43;4.03;;;27.90;69.90;;;;;;5048352;28;20187;-65
2021/08/05 11:05:43;;;;;;;3.45;3.10;;;28.00;72.10;;;;;;5044223;28;20519;-64
2021/08/05 11:08:25;;;;;;;3.20;2.95;;;28.00;68.30;;;;;;5032307;28;20099;-68
2021/08/05 11:11:30;;;;;;;3.03;2.83;;;28.20;71.00;;;;;;5031995;28;20053;-68
2021/08/05 11:14:41;;;;;;;4.95;4.50;;;28.60;69.10;;;;;;5045541;28;20568;-65
2021/08/05 11:17:08;;;;;;;3.58;3.25;;;28.20;69.40;;;;;;5032184;28;20056;-66
2021/08/05 11:19:37;;;;;;;4.43;4.03;;;27.40;71.10;;;;;;5031826;28;20053;-68
2021/08/05 11:22:50;;;;;;;7.47;4.20;;;27.10;73.00;;;;;;5031766;28;20049;-67
2021/08/05 11:25:17;;;;;;;3.58;3.28;;;26.80;72.10;;;;;;5031692;28;20470;-66
2021/08/05 11:28:23;;;;;;;7.53;4.53;;;26.80;74.70;;;;;;5032837;28;20080;-65
2021/08/05 11:30:56;;;;;;;5.70;3.88;;;26.90;74.00;;;;;;5045499;28;20045;-66
2021/08/05 11:33:59;;;;;;;3.85;3.45;;;26.90;73.60;;;;;;5051658;28;20057;-66
2021/08/05 11:36:31;;;;;;;3.42;3.13;;;26.90;73.80;;;;;;5051909;28;20521;-66
2021/08/05 11:39:00;;;;;;;3.60;3.35;;;27.00;72.80;;;;;;5050852;28;20137;-64
2021/08/05 11:41:47;;;;;;;3.47;3.17;;;27.10;71.30;;;;;;5051604;28;20049;-64
2021/08/05 11:44:22;;;;;;;3.60;3.00;;;27.00;72.00;;;;;;5051233;28;20505;-65
2021/08/05 11:47:09;;;;;;;3.10;2.80;;;26.80;72.20;;;;;;5051523;28;20486;-65
2021/08/05 11:49:37;;;;;;;3.33;3.03;;;26.90;72.10;;;;;;5050991;28;20116;-65
2021/08/05 11:52:08;;;;;;;3.78;3.15;;;27.10;71.50;;;;;;5050706;28;20048;-65
2021/08/05 11:54:35;;;;;;;4.30;3.10;;;27.00;70.60;;;;;;5049843;28;20493;-63
2021/08/05 11:57:04;;;;;;;2.75;2.55;;;27.10;71.40;;;;;;5052321;28;20053;-65
2021/08/05 11:59:35;;;;;;;3.63;3.00;;;27.40;70.10;;;;;;5035420;28;20069;-65
2021/08/05 12:02:09;;;;;;;2.97;2.78;;;27.70;69.40;;;;;;5035812;28;20049;-65
2021/08/05 12:04:36;;;;;;;4.53;4.13;;;28.00;68.40;;;;;;5040932;28;20045;-67
2021/08/05 12:07:20;;;;;;;3.10;2.80;;;28.50;67.10;;;;;;5055545;28;20497;-68
2021/08/05 12:09:54;;;;;;;3.05;2.75;;;29.00;63.80;;;;;;5043365;28;20490;-68
2021/08/05 12:12:21;;;;;;;2.80;2.60;;;29.40;65.20;;;;;;5036365;28;20449;-66
2021/08/05 12:14:49;;;;;;;3.67;2.25;;;29.80;63.60;;;;;;5035793;28;20080;-67
2021/08/05 12:17:28;;;;;;;8.52;4.25;;;29.70;62.50;;;;;;5049015;28;20052;-66
2021/08/05 12:19:55;;;;;;;2.83;2.63;;;30.00;62.60;;;;;;5046809;28;20050;-66
2021/08/05 12:22:29;;;;;;;3.10;2.90;;;29.70;61.00;;;;;;5036037;28;20461;-66
2021/08/05 12:24:56;;;;;;;2.83;2.63;;;30.10;61.00;;;;;;5045950;28;20048;-71
2021/08/05 12:27:23;;;;;;;2.80;2.50;;;30.30;61.30;;;;;;5055417;28;20041;-69
2021/08/05 12:30:08;;;;;;;4.45;3.45;;;30.20;60.90;;;;;;5055591;28;20412;-70
2021/08/05 12:32:59;;;;;;;3.22;2.92;;;29.90;62.20;;;;;;5055307;28;20413;-70
2021/08/05 12:35:26;;;;;;;4.70;2.80;;;29.50;60.90;;;;;;5055330;28;20049;-70
2021/08/05 12:38:04;;;;;;;3.17;2.88;;;29.20;61.90;;;;;;5055596;28;20041;-69
2021/08/05 12:40:32;;;;;;;3.35;2.67;;;29.10;61.60;;;;;;5054853;28;20052;-69
2021/08/05 12:43:02;;;;;;;3.15;2.85;;;28.80;61.70;;;;;;5055881;28;20080;-71
2021/08/05 12:45:32;;;;;;;2.55;2.35;;;28.60;63.00;;;;;;5055484;28;20041;-76
2021/08/05 12:48:01;;;;;;;4.05;2.50;;;27.90;63.90;;;;;;5054839;28;20562;-71
2021/08/05 12:50:28;;;;;;;2.78;2.58;;;27.10;64.80;;;;;;5055028;28;20171;-71
2021/08/05 12:52:55;;;;;;;3.85;3.55;;;27.00;68.00;;;;;;5055476;28;20087;-70
2021/08/05 12:55:22;;;;;;;5.88;2.88;;;26.60;67.20;;;;;;5054906;28;20083;-70
2021/08/05 12:57:51;;;;;;;3.45;2.95;;;26.60;68.70;;;;;;5055307;28;20095;-70